Time;durP1;ratioP1;P1;durP2;ratioP2;P2;SDS_P1;SDS_P2;PMS_P1;PMS_P2;Temp;Humidity;BMP_temperature;BMP_pressure;BME280_temperature;BME280_humidity;BME280_pressure;Samples;Min_cycle;Max_cycle;Signal;HPM_P1;HPM_P2
2023/05/30 00:01:43;;;;;;;20.42;2.38;;;;;;;12.55;80.03;102645.34;4980717;28;20488;-71
2023/05/30 00:04:09;;;;;;;13.60;2.65;;;;;;;12.54;78.59;102637.56;4964069;28;20129;-71
2023/05/30 00:06:36;;;;;;;11.75;2.47;;;;;;;12.48;80.50;102640.66;4985573;28;20050;-72
2023/05/30 00:09:03;;;;;;;8.82;2.55;;;;;;;12.46;78.04;102641.59;4976196;28;20062;-72
2023/05/30 00:11:30;;;;;;;15.27;2.70;;;;;;;12.43;80.90;102631.31;4969853;28;20062;-72
2023/05/30 00:13:58;;;;;;;13.60;2.40;;;;;;;12.40;81.04;102644.69;4976763;28;20120;-72
2023/05/30 00:16:25;;;;;;;11.70;2.22;;;;;;;12.38;81.37;102643.13;4968469;28;20081;-72
2023/05/30 00:18:53;;;;;;;14.85;3.08;;;;;;;12.36;81.55;102640.59;4974331;28;20394;-72
2023/05/30 00:21:20;;;;;;;11.43;2.30;;;;;;;12.29;80.13;102647.28;4965932;28;20062;-72
2023/05/30 00:23:47;;;;;;;12.13;2.50;;;;;;;12.31;81.63;102648.00;4977832;28;20542;-72
2023/05/30 00:26:15;;;;;;;10.88;2.35;;;;;;;12.24;82.39;102647.59;4977198;28;20125;-71
2023/05/30 00:28:42;;;;;;;13.02;2.55;;;;;;;12.19;83.28;102648.91;4972993;28;20078;-72
2023/05/30 00:31:09;;;;;;;15.70;2.92;;;;;;;12.19;81.68;102639.22;4958971;28;20483;-71
2023/05/30 00:33:35;;;;;;;11.35;3.65;;;;;;;12.14;83.73;102651.88;4967087;28;20054;-72
2023/05/30 00:36:02;;;;;;;13.30;2.35;;;;;;;12.16;81.70;102641.25;4980940;28;20101;-71
2023/05/30 00:38:28;;;;;;;9.63;2.42;;;;;;;12.13;81.20;102636.19;4972851;28;20082;-70
2023/05/30 00:40:55;;;;;;;24.15;2.40;;;;;;;12.14;82.16;102640.53;4980159;28;20081;-71
2023/05/30 00:43:22;;;;;;;12.73;2.30;;;;;;;12.11;82.73;102640.72;4971705;28;20061;-70
2023/05/30 00:45:52;;;;;;;11.77;2.33;;;;;;;12.10;83.04;102646.97;4977048;28;20161;-70
2023/05/30 00:48:20;;;;;;;13.68;2.78;;;;;;;12.07;83.15;102640.09;4976934;28;20050;-70
2023/05/30 00:50:48;;;;;;;15.07;2.75;;;;;;;12.06;83.67;102649.78;4965236;28;20184;-71
2023/05/30 00:53:15;;;;;;;10.38;2.53;;;;;;;12.03;83.76;102647.38;4976797;28;20054;-70
2023/05/30 00:55:42;;;;;;;18.13;2.67;;;;;;;11.98;85.73;102646.06;4950605;28;20105;-70
2023/05/30 00:58:09;;;;;;;16.50;2.90;;;;;;;11.90;86.13;102651.00;4969315;28;20058;-70
2023/05/30 01:00:38;;;;;;;11.40;2.40;;;;;;;11.88;84.66;102651.94;4977038;28;20855;-71
2023/05/30 01:03:08;;;;;;;10.90;2.67;;;;;;;11.86;85.51;102653.84;4983668;28;20050;-70
2023/05/30 01:05:35;;;;;;;14.15;2.40;;;;;;;11.86;85.49;102645.94;4976484;28;20054;-71
2023/05/30 01:08:02;;;;;;;12.90;2.45;;;;;;;11.88;84.24;102649.31;4977824;28;20054;-70
2023/05/30 01:10:30;;;;;;;17.00;2.72;;;;;;;11.88;84.40;102653.75;4977109;28;20499;-70
2023/05/30 01:13:15;;;;;;;13.20;2.50;;;;;;;11.88;86.23;102651.94;4949335;28;20504;-70
2023/05/30 01:15:53;;;;;;;9.18;2.50;;;;;;;11.86;85.38;102653.84;4977893;28;20159;-70
2023/05/30 01:18:55;;;;;;;14.98;3.05;;;;;;;11.83;85.02;102651.41;4975868;28;20088;-70
2023/05/30 01:21:24;;;;;;;12.45;2.63;;;;;;;11.84;85.64;102654.91;4974028;28;20100;-70
2023/05/30 01:24:06;;;;;;;16.48;2.55;;;;;;;11.79;87.24;102655.22;4971090;28;20129;-70
2023/05/30 01:26:55;;;;;;;15.70;3.03;;;;;;;11.76;86.89;102659.84;4979963;28;20160;-70
2023/05/30 01:29:24;;;;;;;17.17;3.03;;;;;;;11.73;87.50;102660.09;4975778;28;20121;-70
2023/05/30 01:31:53;;;;;;;11.82;2.40;;;;;;;11.75;85.53;102663.44;4961634;28;20058;-70
2023/05/30 01:34:20;;;;;;;13.23;3.00;;;;;;;11.73;87.37;102665.34;4981447;28;20058;-70
2023/05/30 01:36:46;;;;;;;20.05;3.35;;;;;;;11.63;87.62;102668.63;4975048;28;20196;-71
2023/05/30 01:39:13;;;;;;;14.88;3.15;;;;;;;11.63;87.33;102673.88;4963171;28;20050;-70
2023/05/30 01:41:52;;;;;;;12.38;2.85;;;;;;;11.64;89.57;102674.69;4969118;28;20105;-70
2023/05/30 01:44:26;;;;;;;;;;;;;;;11.62;89.06;102669.59;4979023;28;20493;-70
2023/05/30 01:47:12;;;;;;;16.95;3.08;;;;;;;11.65;88.99;102673.78;4981521;28;19933;-70
2023/05/30 01:49:59;;;;;;;15.10;2.50;;;;;;;11.61;90.36;102664.44;4985296;28;20451;-70
2023/05/30 01:52:33;;;;;;;12.80;2.50;;;;;;;11.61;88.54;102669.69;4975361;28;20109;-70
2023/05/30 01:55:05;;;;;;;11.10;2.72;;;;;;;11.58;90.73;102675.97;4978451;28;20109;-70
2023/05/30 01:57:32;;;;;;;14.15;3.33;;;;;;;11.59;89.79;102679.47;4962771;28;20046;-71
2023/05/30 01:59:59;;;;;;;12.48;2.63;;;;;;;11.61;90.35;102682.81;4982303;28;20054;-70
2023/05/30 02:02:26;;;;;;;10.77;2.85;;;;;;;11.59;90.13;102677.66;4970523;28;20100;-70
2023/05/30 02:04:52;;;;;;;11.15;2.38;;;;;;;11.63;89.85;102681.75;4980759;28;20054;-71
2023/05/30 02:07:19;;;;;;;15.15;2.45;;;;;;;11.65;90.32;102679.84;4972767;28;20050;-70
2023/05/30 02:09:45;;;;;;;14.07;3.35;;;;;;;11.65;90.32;102684.28;4966900;28;20062;-70
2023/05/30 02:12:12;;;;;;;12.32;2.88;;;;;;;11.71;89.94;102688.28;4982178;28;20470;-70
2023/05/30 02:14:38;;;;;;;13.25;2.70;;;;;;;11.73;89.15;102678.50;4981954;28;20988;-70
2023/05/30 02:17:05;;;;;;;12.30;2.58;;;;;;;11.75;90.15;102690.56;4979494;28;20168;-70
2023/05/30 02:19:32;;;;;;;14.88;3.42;;;;;;;11.79;90.72;102696.44;4980770;28;20082;-70
2023/05/30 02:21:58;;;;;;;12.15;2.55;;;;;;;11.81;88.80;102687.50;4977827;28;20495;-71
2023/05/30 02:24:25;;;;;;;14.15;2.67;;;;;;;11.81;89.58;102681.41;4981621;28;20063;-70
2023/05/30 02:26:51;;;;;;;13.10;2.67;;;;;;;11.80;90.81;102690.22;4978927;28;20054;-70
2023/05/30 02:29:18;;;;;;;21.15;4.43;;;;;;;11.85;89.81;102694.22;4971504;28;20097;-70
2023/05/30 02:31:44;;;;;;;14.05;2.95;;;;;;;11.88;89.85;102698.44;4977292;28;20442;-70
2023/05/30 02:34:11;;;;;;;16.88;3.17;;;;;;;11.87;91.04;102691.50;4968859;28;20066;-70
2023/05/30 02:36:38;;;;;;;12.00;2.53;;;;;;;11.89;90.21;102692.25;4968835;28;20446;-70
2023/05/30 02:39:09;;;;;;;14.90;3.05;;;;;;;11.96;85.89;102698.75;4976646;28;20491;-70
2023/05/30 02:41:37;;;;;;;12.02;2.65;;;;;;;11.95;90.90;102704.13;4978749;28;20051;-70
2023/05/30 02:44:06;;;;;;;11.38;2.67;;;;;;;11.99;90.04;102701.16;4968469;28;20057;-68
2023/05/30 02:46:34;;;;;;;12.85;3.42;;;;;;;11.99;90.46;102693.25;4980020;28;20117;-68
2023/05/30 02:49:01;;;;;;;12.25;3.28;;;;;;;12.02;89.68;102692.22;4968298;28;20047;-70
2023/05/30 02:51:28;;;;;;;10.73;2.78;;;;;;;12.04;90.71;102698.22;4955955;28;20546;-69
2023/05/30 02:53:55;;;;;;;16.05;3.78;;;;;;;12.03;90.25;102699.16;4984158;28;20157;-71
2023/05/30 02:56:25;;;;;;;9.98;2.47;;;;;;;12.07;88.75;102693.59;4973694;28;20066;-71
2023/05/30 02:58:52;;;;;;;15.68;3.05;;;;;;;12.06;91.77;102693.69;4978013;28;20058;-71
2023/05/30 03:01:19;;;;;;;15.18;3.35;;;;;;;12.10;90.65;102696.94;4975306;28;20313;-71
2023/05/30 03:03:47;;;;;;;13.48;3.35;;;;;;;12.14;89.53;102695.75;4978673;28;20106;-71
2023/05/30 03:06:14;;;;;;;11.90;3.22;;;;;;;12.16;89.27;102691.22;4973951;28;20046;-71
2023/05/30 03:08:42;;;;;;;14.57;2.80;;;;;;;12.13;89.69;102691.44;4970735;28;20058;-71
2023/05/30 03:11:10;;;;;;;13.32;2.80;;;;;;;12.15;89.85;102694.78;4984982;28;20458;-71
2023/05/30 03:13:36;;;;;;;12.88;3.08;;;;;;;12.15;90.96;102694.78;4965419;28;20084;-71
2023/05/30 03:16:03;;;;;;;11.30;2.65;;;;;;;12.18;88.57;102699.84;4981814;28;20050;-70
2023/05/30 03:18:30;;;;;;;14.65;2.88;;;;;;;12.17;89.40;102700.78;4981389;28;20494;-73
2023/05/30 03:20:56;;;;;;;11.90;2.50;;;;;;;12.19;89.68;102691.00;4987596;28;20050;-71
2023/05/30 03:23:23;;;;;;;12.55;2.97;;;;;;;12.21;88.68;102703.09;4966214;28;20050;-71
2023/05/30 03:25:50;;;;;;;15.05;3.38;;;;;;;12.23;88.79;102695.06;4968850;28;20054;-70
2023/05/30 03:28:17;;;;;;;14.20;3.45;;;;;;;12.21;88.48;102683.81;4980656;28;20326;-70
2023/05/30 03:30:43;;;;;;;12.73;3.17;;;;;;;12.25;89.27;102696.66;4977407;28;20081;-70
2023/05/30 03:33:11;;;;;;;11.50;2.72;;;;;;;12.19;88.85;102691.84;4987318;28;20505;-70
2023/05/30 03:35:37;;;;;;;17.60;3.22;;;;;;;12.18;90.66;102697.22;4946745;28;20061;-70
2023/05/30 03:38:04;;;;;;;12.45;2.70;;;;;;;12.18;89.50;102700.69;4977337;28;20050;-70
2023/05/30 03:40:30;;;;;;;10.60;3.10;;;;;;;12.18;88.26;102707.75;4973950;28;20054;-71
2023/05/30 03:42:59;;;;;;;10.90;3.17;;;;;;;12.16;90.15;102699.13;4979431;28;20074;-70
2023/05/30 03:45:25;;;;;;;10.38;2.83;;;;;;;12.17;89.55;102708.69;4986557;28;20055;-71
2023/05/30 03:47:52;;;;;;;12.90;2.75;;;;;;;12.19;90.40;102712.03;4975088;28;20059;-70
2023/05/30 03:50:18;;;;;;;14.80;3.35;;;;;;;12.15;91.04;102710.59;4980512;28;20146;-69
2023/05/30 03:52:45;;;;;;;9.95;3.40;;;;;;;12.16;91.10;102715.75;4958781;28;20054;-71
2023/05/30 03:55:12;;;;;;;13.35;3.10;;;;;;;12.17;89.82;102708.69;4968764;28;20053;-70
2023/05/30 03:57:38;;;;;;;14.80;3.10;;;;;;;12.21;90.29;102710.13;4977744;28;20515;-70
2023/05/30 04:00:05;;;;;;;7.35;2.58;;;;;;;12.24;90.82;102712.56;4986374;28;20049;-70
2023/05/30 04:02:32;;;;;;;16.52;3.00;;;;;;;12.27;88.77;102707.91;4983850;28;20054;-71
2023/05/30 04:04:58;;;;;;;13.52;3.25;;;;;;;12.29;90.99;102715.72;4962114;28;20058;-70
2023/05/30 04:07:27;;;;;;;8.07;2.97;;;;;;;12.32;89.14;102706.75;4970352;28;20054;-70
2023/05/30 04:09:53;;;;;;;16.08;4.00;;;;;;;12.37;90.10;102713.34;4965737;28;20050;-70
2023/05/30 04:12:20;;;;;;;10.82;3.25;;;;;;;12.40;89.12;102715.75;4982460;28;20081;-71
2023/05/30 04:14:46;;;;;;;10.70;2.85;;;;;;;12.41;89.39;102709.53;4983075;28;20070;-71
2023/05/30 04:17:13;;;;;;;14.90;3.38;;;;;;;12.39;88.96;102714.06;4982666;28;20101;-70
2023/05/30 04:19:39;;;;;;;12.13;3.28;;;;;;;12.42;85.72;102713.84;4961694;28;20089;-70
2023/05/30 04:22:06;;;;;;;12.25;3.13;;;;;;;12.44;89.29;102714.56;4969671;28;20038;-71
2023/05/30 04:24:32;;;;;;;10.85;3.28;;;;;;;12.40;86.34;102712.28;4967803;28;20125;-71
2023/05/30 04:27:00;;;;;;;15.55;4.05;;;;;;;12.48;87.24;102723.06;4981439;28;20085;-71
2023/05/30 04:29:26;;;;;;;12.37;3.57;;;;;;;12.51;87.19;102727.31;4969053;28;20050;-71
2023/05/30 04:31:53;;;;;;;13.65;3.55;;;;;;;12.50;87.62;102718.53;4970020;28;20055;-71
2023/05/30 04:34:19;;;;;;;12.90;3.10;;;;;;;12.53;87.11;102714.88;4964426;28;20090;-71
2023/05/30 04:36:46;;;;;;;15.82;3.70;;;;;;;12.55;86.69;102721.69;4978679;28;20054;-71
2023/05/30 04:39:12;;;;;;;13.15;3.15;;;;;;;12.60;86.92;102710.81;4968605;28;20054;-72
2023/05/30 04:41:40;;;;;;;12.07;3.60;;;;;;;12.62;86.56;102711.53;4977314;28;20069;-71
2023/05/30 04:44:07;;;;;;;19.48;3.45;;;;;;;12.65;87.43;102713.94;4960839;28;20062;-71
2023/05/30 04:46:35;;;;;;;10.85;3.55;;;;;;;12.70;84.96;102716.22;4961064;28;20054;-71
2023/05/30 04:49:02;;;;;;;;;;;;;;;12.76;84.14;102711.38;4970228;28;20086;-71
2023/05/30 04:51:29;;;;;;;12.65;3.42;;;;;;;12.79;84.01;102718.19;4961299;28;19934;-71
2023/05/30 04:53:55;;;;;;;10.45;3.17;;;;;;;12.75;82.77;102706.22;4977595;28;20502;-71
2023/05/30 04:56:22;;;;;;;13.82;3.33;;;;;;;12.73;82.86;102713.38;4964379;28;20329;-71
2023/05/30 04:58:51;;;;;;;12.15;3.55;;;;;;;12.80;82.41;102714.59;4980958;28;20077;-71
2023/05/30 05:01:18;;;;;;;11.98;4.00;;;;;;;12.82;84.08;102707.44;4977699;28;20133;-71
2023/05/30 05:03:45;;;;;;;14.25;3.72;;;;;;;12.90;82.93;102712.09;4969190;28;20055;-71
2023/05/30 05:06:13;;;;;;;12.23;3.42;;;;;;;12.90;83.09;102712.09;4969288;28;20775;-71
2023/05/30 05:08:39;;;;;;;9.32;3.13;;;;;;;12.95;80.86;102718.69;4977123;28;20054;-71
2023/05/30 05:11:06;;;;;;;10.57;3.40;;;;;;;12.96;81.38;102720.41;4976521;28;20106;-71
2023/05/30 05:13:34;;;;;;;8.32;3.35;;;;;;;13.03;79.64;102732.16;4975545;28;20058;-71
2023/05/30 05:16:01;;;;;;;9.57;3.00;;;;;;;13.01;80.61;102731.41;4967110;28;20072;-71
2023/05/30 05:18:28;;;;;;;13.30;3.83;;;;;;;13.05;79.91;102724.97;4980630;28;20054;-71
2023/05/30 05:20:54;;;;;;;16.67;3.55;;;;;;;13.04;80.44;102714.56;4968678;28;20459;-71
2023/05/30 05:23:23;;;;;;;18.65;5.13;;;;;;;13.06;80.26;102718.75;4973780;28;20062;-71
2023/05/30 05:25:50;;;;;;;12.98;3.70;;;;;;;13.02;81.12;102719.09;4979412;28;20133;-71
2023/05/30 05:28:17;;;;;;;13.63;3.72;;;;;;;13.09;80.20;102722.09;4980853;28;20060;-71
2023/05/30 05:30:44;;;;;;;13.88;4.32;;;;;;;13.15;79.77;102726.91;4972258;28;20543;-71
2023/05/30 05:33:13;;;;;;;12.75;4.80;;;;;;;13.21;80.06;102718.53;4962799;28;20129;-72
2023/05/30 05:35:40;;;;;;;13.98;3.80;;;;;;;13.21;79.80;102726.44;4974126;28;20042;-71
2023/05/30 05:38:07;;;;;;;14.52;3.78;;;;;;;13.26;80.46;102733.03;4952962;28;20154;-71
2023/05/30 05:40:33;;;;;;;14.23;3.53;;;;;;;13.30;80.20;102727.56;4976524;28;20046;-71
2023/05/30 05:43:01;;;;;;;13.35;4.43;;;;;;;13.31;80.02;102729.22;4975076;28;20054;-71
2023/05/30 05:45:27;;;;;;;11.57;3.70;;;;;;;13.36;80.55;102729.72;4989712;28;20141;-71
2023/05/30 05:47:54;;;;;;;10.75;3.30;;;;;;;13.42;79.40;102730.06;4964551;28;20120;-71
2023/05/30 05:50:20;;;;;;;12.15;3.70;;;;;;;13.42;79.70;102730.06;4988771;28;20495;-71
2023/05/30 05:52:47;;;;;;;11.18;3.22;;;;;;;13.44;77.86;102733.44;4965047;28;20137;-72
2023/05/30 05:55:13;;;;;;;9.68;3.28;;;;;;;13.46;78.07;102735.97;4989356;28;20414;-72
2023/05/30 05:57:40;;;;;;;6.00;2.72;;;;;;;13.57;76.11;102737.78;4968637;28;20096;-73
2023/05/30 06:00:07;;;;;;;9.80;3.08;;;;;;;13.62;76.79;102738.25;4961504;28;20050;-72
2023/05/30 06:02:34;;;;;;;9.20;3.47;;;;;;;13.58;76.44;102736.81;4972866;28;20054;-72
2023/05/30 06:05:01;;;;;;;8.05;2.67;;;;;;;13.62;75.46;102743.50;4955909;28;20051;-72
2023/05/30 06:07:28;;;;;;;11.38;3.13;;;;;;;13.63;75.49;102748.69;4983361;28;20399;-72
2023/05/30 06:09:55;;;;;;;10.75;3.35;;;;;;;13.66;75.26;102731.75;4969417;28;20078;-71
2023/05/30 06:12:22;;;;;;;12.95;3.45;;;;;;;13.66;75.97;102739.69;4981773;28;20137;-71
2023/05/30 06:14:49;;;;;;;7.32;2.88;;;;;;;13.73;74.50;102742.69;4987241;28;20042;-72
2023/05/30 06:17:16;;;;;;;8.20;2.85;;;;;;;13.77;73.73;102734.41;4971166;28;20082;-72
2023/05/30 06:19:43;;;;;;;9.75;3.10;;;;;;;13.78;73.77;102736.09;4963808;28;20517;-72
2023/05/30 06:22:10;;;;;;;11.13;3.08;;;;;;;13.82;74.38;102734.91;4951061;28;20064;-72
2023/05/30 06:24:36;;;;;;;13.13;3.45;;;;;;;13.87;74.42;102726.59;4963135;28;20878;-71
2023/05/30 06:27:03;;;;;;;14.68;3.72;;;;;;;13.91;73.19;102735.13;4972085;28;20061;-71
2023/05/30 06:29:30;;;;;;;8.77;4.03;;;;;;;13.85;73.91;102734.63;4986760;28;20100;-72
2023/05/30 06:31:58;;;;;;;8.90;3.50;;;;;;;13.88;74.20;102735.34;4971722;28;20042;-71
2023/05/30 06:34:40;;;;;;;13.55;3.45;;;;;;;13.97;74.65;102735.47;4980903;28;20050;-72
2023/05/30 06:37:07;;;;;;;10.60;3.40;;;;;;;14.09;74.00;102736.28;4979168;28;20086;-71
2023/05/30 06:39:33;;;;;;;12.52;3.70;;;;;;;14.21;73.30;102735.31;4950828;28;20085;-72
2023/05/30 06:42:01;;;;;;;12.02;3.42;;;;;;;14.34;72.14;102735.16;4972567;28;20047;-71
2023/05/30 06:44:27;;;;;;;9.50;3.63;;;;;;;14.37;71.65;102740.19;4972536;28;20145;-72
2023/05/30 06:46:55;;;;;;;9.90;3.67;;;;;;;14.43;71.04;102734.41;4987985;28;20050;-72
2023/05/30 06:49:22;;;;;;;14.10;4.07;;;;;;;14.47;72.16;102736.81;4988212;28;20066;-72
2023/05/30 06:51:48;;;;;;;11.57;3.80;;;;;;;14.55;71.85;102743.13;4982166;28;20104;-72
2023/05/30 06:54:15;;;;;;;11.77;3.63;;;;;;;14.61;71.31;102741.81;4972099;28;20064;-72
2023/05/30 06:56:41;;;;;;;13.68;3.47;;;;;;;14.77;71.28;102747.50;4974984;28;20057;-71
2023/05/30 06:59:08;;;;;;;13.55;3.83;;;;;;;14.82;71.15;102747.97;4981737;28;20623;-72
2023/05/30 07:01:34;;;;;;;14.68;4.25;;;;;;;14.88;69.97;102756.34;4983007;28;20141;-72
2023/05/30 07:04:01;;;;;;;11.90;3.70;;;;;;;14.89;68.60;102758.03;4973025;28;20121;-72
2023/05/30 07:06:31;;;;;;;12.43;3.90;;;;;;;14.91;70.38;102753.47;4961831;28;20046;-72
2023/05/30 07:08:58;;;;;;;8.93;3.30;;;;;;;14.98;69.08;102754.63;4986908;28;20054;-71
2023/05/30 07:11:26;;;;;;;12.15;3.60;;;;;;;14.94;68.68;102753.22;4992284;28;20100;-71
2023/05/30 07:13:53;;;;;;;8.55;2.95;;;;;;;15.00;67.42;102756.16;4970053;28;20065;-72
2023/05/30 07:16:20;;;;;;;10.50;3.53;;;;;;;15.02;66.68;102758.69;4975351;28;20051;-72
2023/05/30 07:18:47;;;;;;;9.80;4.05;;;;;;;15.00;66.68;102750.88;4970631;28;20402;-72
2023/05/30 07:21:28;;;;;;;10.25;3.30;;;;;;;14.99;65.96;102743.09;4955244;28;20141;-73
2023/05/30 07:23:55;;;;;;;;;;;;;;;15.15;66.94;102751.41;4954992;28;20253;-72
2023/05/30 07:26:23;;;;;;;11.52;3.00;;;;;;;15.21;66.55;102750.03;4961788;28;19993;-72
2023/05/30 07:28:50;;;;;;;9.60;3.83;;;;;;;15.20;66.35;102754.50;4973135;28;20073;-72
2023/05/30 07:31:17;;;;;;;10.02;3.63;;;;;;;15.31;65.13;102755.38;4987614;28;20054;-71
2023/05/30 07:33:44;;;;;;;10.90;3.10;;;;;;;15.44;65.26;102750.72;4971049;28;20058;-72
2023/05/30 07:36:11;;;;;;;14.20;3.22;;;;;;;15.41;64.66;102748.38;4982609;28;20137;-71
2023/05/30 07:38:41;;;;;;;10.65;2.85;;;;;;;15.56;63.96;102749.69;4973870;28;20054;-72
2023/05/30 07:41:10;;;;;;;12.82;3.65;;;;;;;15.47;64.13;102744.34;4988215;28;20065;-71
2023/05/30 07:43:37;;;;;;;8.85;3.25;;;;;;;15.52;64.10;102750.06;4994332;28;20060;-71
2023/05/30 07:46:03;;;;;;;9.57;2.92;;;;;;;15.57;64.33;102753.16;4996783;28;20042;-72
2023/05/30 07:48:31;;;;;;;10.10;3.47;;;;;;;15.61;64.15;102757.22;4987606;28;20070;-72
2023/05/30 07:51:00;;;;;;;7.35;3.05;;;;;;;15.56;64.02;102754.97;4982627;28;20047;-71
2023/05/30 07:53:27;;;;;;;10.77;3.72;;;;;;;15.59;63.47;102753.88;4991831;28;20058;-72
2023/05/30 07:55:53;;;;;;;15.60;4.00;;;;;;;15.63;64.20;102755.28;4980587;28;20470;-71
2023/05/30 07:58:22;;;;;;;9.35;3.28;;;;;;;15.57;64.68;102751.34;4991239;28;20113;-72
2023/05/30 08:00:49;;;;;;;12.65;3.60;;;;;;;15.51;65.12;102757.19;4977352;28;20057;-72
2023/05/30 08:03:15;;;;;;;11.32;3.70;;;;;;;15.51;64.59;102757.19;4983136;28;20088;-72
2023/05/30 08:05:42;;;;;;;14.02;3.83;;;;;;;15.50;65.68;102750.19;4981581;28;20056;-72
2023/05/30 08:08:09;;;;;;;9.10;3.33;;;;;;;15.51;64.65;102749.25;4955403;28;20057;-72
2023/05/30 08:10:36;;;;;;;9.43;3.30;;;;;;;15.57;64.19;102761.09;4976434;28;20062;-72
2023/05/30 08:13:05;;;;;;;11.18;3.40;;;;;;;15.62;64.97;102756.25;4985754;28;20129;-72
2023/05/30 08:15:31;;;;;;;10.32;3.78;;;;;;;15.69;65.05;102749.47;4975006;28;20050;-73
2023/05/30 08:18:00;;;;;;;11.68;3.88;;;;;;;15.72;65.55;102746.56;4960044;28;20097;-73
2023/05/30 08:20:26;;;;;;;;;;;;;;;15.78;65.55;102739.94;4977116;28;20066;-73
2023/05/30 08:22:55;;;;;;;8.60;3.28;;;;;;;15.88;65.37;102745.25;4968822;28;19936;-72
2023/05/30 08:25:28;;;;;;;13.10;4.45;;;;;;;15.90;64.05;102741.50;4975516;28;20519;-73
2023/05/30 08:27:58;;;;;;;10.35;3.70;;;;;;;16.07;63.61;102741.81;4970262;28;20149;-72
2023/05/30 08:30:25;;;;;;;10.80;3.95;;;;;;;16.20;63.40;102742.41;4973594;28;20105;-73
2023/05/30 08:32:51;;;;;;;9.70;3.40;;;;;;;16.46;62.83;102721.50;4962736;28;20064;-72
2023/05/30 08:35:18;;;;;;;12.57;3.90;;;;;;;16.91;60.77;102728.91;4980189;28;20109;-72
2023/05/30 08:37:45;;;;;;;12.45;4.90;;;;;;;17.31;60.95;102727.03;4965195;28;20050;-72
2023/05/30 08:40:14;;;;;;;10.70;3.35;;;;;;;17.63;58.82;102720.47;4977153;28;20094;-71
2023/05/30 08:42:41;;;;;;;10.05;3.90;;;;;;;18.11;59.27;102717.59;4974280;28;20113;-71
2023/05/30 08:45:08;;;;;;;10.80;5.00;;;;;;;18.51;58.89;102723.44;4971954;28;20081;-71
2023/05/30 08:47:35;;;;;;;10.02;4.10;;;;;;;18.83;56.53;102717.56;4979407;28;20148;-72
2023/05/30 08:50:04;;;;;;;10.90;3.95;;;;;;;18.95;56.29;102719.00;4975347;28;20220;-71
2023/05/30 08:52:32;;;;;;;10.38;4.20;;;;;;;19.26;55.53;102721.16;4983070;28;20104;-71
2023/05/30 08:55:10;;;;;;;11.93;3.72;;;;;;;19.29;54.57;102715.53;4977500;28;20157;-72
2023/05/30 08:57:47;;;;;;;12.02;3.85;;;;;;;19.64;53.93;102719.03;4959953;28;20074;-72
2023/05/30 09:00:15;;;;;;;11.07;3.17;;;;;;;19.73;54.61;102722.59;4979066;28;20129;-72
2023/05/30 09:02:45;;;;;;;11.60;4.18;;;;;;;19.92;52.90;102711.66;4972822;28;20558;-72
2023/05/30 09:05:15;;;;;;;8.80;3.90;;;;;;;20.23;52.37;102710.22;4983688;28;20050;-72
2023/05/30 09:07:44;;;;;;;11.45;4.25;;;;;;;20.44;52.37;102705.25;4970890;28;20042;-72
2023/05/30 09:10:11;;;;;;;12.95;3.80;;;;;;;20.73;52.10;102704.75;4976678;28;20046;-71
2023/05/30 09:12:40;;;;;;;11.05;4.55;;;;;;;20.99;50.50;102702.91;4968138;28;20050;-72
2023/05/30 09:15:07;;;;;;;12.40;3.83;;;;;;;21.15;49.78;102700.22;4973258;28;20074;-72
2023/05/30 09:17:34;;;;;;;11.63;4.00;;;;;;;21.38;48.61;102696.78;4979349;28;20104;-72
2023/05/30 09:20:00;;;;;;;11.55;3.72;;;;;;;21.53;50.42;102690.56;4978616;28;20142;-72
2023/05/30 09:22:27;;;;;;;14.40;4.30;;;;;;;21.72;49.00;102693.84;4984250;28;20069;-73
2023/05/30 09:25:00;;;;;;;11.48;3.95;;;;;;;21.77;49.02;102685.28;4976693;28;20145;-72
2023/05/30 09:27:30;;;;;;;10.80;3.83;;;;;;;21.90;48.63;102688.22;4977724;28;20074;-72
2023/05/30 09:29:56;;;;;;;13.55;4.32;;;;;;;22.11;47.99;102684.94;4973307;28;20581;-73
2023/05/30 09:32:28;;;;;;;8.40;3.65;;;;;;;22.22;47.56;102687.16;4982740;28;20054;-72
2023/05/30 09:34:56;;;;;;;12.82;4.25;;;;;;;22.06;47.17;102685.44;4985830;28;20133;-72
2023/05/30 09:37:24;;;;;;;11.80;3.97;;;;;;;22.29;47.07;102687.31;4976175;28;20102;-73
2023/05/30 09:40:06;;;;;;;13.48;4.28;;;;;;;22.37;46.80;102679.22;4975607;28;20062;-72
2023/05/30 09:42:46;;;;;;;9.50;3.80;;;;;;;22.49;46.86;102683.13;4971650;28;20547;-72
2023/05/30 09:45:14;;;;;;;8.88;4.13;;;;;;;22.69;46.01;102672.75;4978782;28;20054;-72
2023/05/30 09:47:46;;;;;;;12.07;4.00;;;;;;;22.71;46.87;102678.75;4966578;28;20054;-72
2023/05/30 09:50:15;;;;;;;11.50;3.80;;;;;;;22.82;46.20;102676.66;4977018;28;20487;-73
2023/05/30 09:52:42;;;;;;;9.60;3.75;;;;;;;22.91;45.91;102659.47;4977911;28;20744;-73
2023/05/30 09:55:12;;;;;;;13.98;3.75;;;;;;;23.05;46.08;102663.19;4981930;28;20042;-73
2023/05/30 09:57:40;;;;;;;13.32;3.95;;;;;;;23.23;45.73;102658.31;4986810;28;20054;-73
2023/05/30 10:00:13;;;;;;;9.50;3.92;;;;;;;23.29;44.19;102657.56;4982796;28;20053;-72
2023/05/30 10:02:42;;;;;;;11.98;3.88;;;;;;;23.34;44.31;102653.50;4969752;28;20080;-73
2023/05/30 10:05:20;;;;;;;11.43;4.13;;;;;;;23.41;43.67;102657.91;4979664;28;20454;-73
2023/05/30 10:07:49;;;;;;;7.68;3.67;;;;;;;23.46;43.98;102663.56;4976774;28;20877;-73
2023/05/30 10:10:17;;;;;;;14.43;3.72;;;;;;;23.61;43.63;102660.81;4970638;28;20133;-73
2023/05/30 10:12:46;;;;;;;;;;;;;;;23.69;42.27;102651.84;4988300;28;20063;-73
2023/05/30 10:15:12;;;;;;;9.27;3.35;;;;;;;23.82;43.67;102654.69;4983049;28;19925;-73
2023/05/30 10:17:45;;;;;;;14.27;4.40;;;;;;;23.81;43.75;102650.34;4981808;28;20051;-72
2023/05/30 10:20:14;;;;;;;9.90;3.80;;;;;;;24.02;43.98;102657.56;4984236;28;20081;-73
2023/05/30 10:22:46;;;;;;;8.88;3.45;;;;;;;24.00;43.15;102654.25;4973286;28;20086;-73
2023/05/30 10:25:16;;;;;;;9.85;3.95;;;;;;;24.18;43.38;102650.28;4975437;28;20133;-73
2023/05/30 10:27:47;;;;;;;10.70;3.47;;;;;;;24.28;43.07;102650.78;4972948;28;20217;-73
2023/05/30 10:30:21;;;;;;;10.52;3.95;;;;;;;24.34;43.18;102646.50;4987481;28;20097;-73
2023/05/30 10:32:53;;;;;;;9.15;3.83;;;;;;;24.39;43.01;102652.13;4980858;28;20467;-73
2023/05/30 10:35:20;;;;;;;10.02;3.75;;;;;;;24.31;41.89;102645.06;4983461;28;20077;-73
2023/05/30 10:37:49;;;;;;;14.63;3.55;;;;;;;24.51;42.76;102653.28;4981185;28;20065;-73
2023/05/30 10:40:20;;;;;;;7.45;3.22;;;;;;;24.57;42.38;102647.13;4981554;28;20495;-73
2023/05/30 10:43:05;;;;;;;10.57;3.75;;;;;;;24.76;42.85;102650.16;4986382;28;20139;-73
2023/05/30 10:45:52;;;;;;;14.90;3.83;;;;;;;24.76;42.42;102634.06;4985156;28;20137;-73
2023/05/30 10:48:30;;;;;;;12.27;4.25;;;;;;;24.94;42.43;102638.91;4981703;28;20141;-73
2023/05/30 10:50:59;;;;;;;11.02;3.88;;;;;;;25.02;43.12;102626.13;4963891;28;20061;-73
2023/05/30 10:53:26;;;;;;;11.68;4.20;;;;;;;25.11;42.24;102640.22;4981059;28;20133;-74
2023/05/30 10:55:53;;;;;;;10.18;3.58;;;;;;;25.19;41.97;102642.75;4969525;28;20112;-74
2023/05/30 10:58:37;;;;;;;9.30;3.80;;;;;;;25.31;40.04;102631.47;4955620;28;20053;-74
2023/05/30 11:01:26;;;;;;;12.00;4.40;;;;;;;25.13;41.26;102626.59;4976845;28;20186;-73
2023/05/30 11:04:11;;;;;;;7.43;3.15;;;;;;;25.26;41.16;102626.69;4968854;28;20057;-73
2023/05/30 11:06:42;;;;;;;10.98;3.83;;;;;;;25.30;41.10;102630.59;4962613;28;20085;-74
2023/05/30 11:09:14;;;;;;;11.73;4.30;;;;;;;25.27;41.04;102622.97;4968771;28;20054;-74
2023/05/30 11:11:43;;;;;;;14.10;4.38;;;;;;;25.39;42.16;102623.22;4968848;28;20050;-72
2023/05/30 11:14:12;;;;;;;15.50;4.57;;;;;;;25.43;41.37;102616.41;4979081;28;20513;-74
2023/05/30 11:16:54;;;;;;;13.23;4.43;;;;;;;25.44;39.91;102615.38;4985764;28;20054;-73
2023/05/30 11:19:40;;;;;;;13.93;5.07;;;;;;;25.67;41.23;102615.00;4974432;28;20062;-72
2023/05/30 11:22:13;;;;;;;10.63;4.25;;;;;;;25.69;40.62;102606.75;4983520;28;20166;-71
2023/05/30 11:24:40;;;;;;;16.95;4.60;;;;;;;25.75;40.09;102614.81;4981332;28;20130;-72
2023/05/30 11:27:08;;;;;;;14.80;4.40;;;;;;;25.76;40.05;102597.66;4986986;28;20068;-72